createdAt,value
2023-04-04T00:04:52.158Z,65.9
2023-04-04T00:09:51.985Z,65.4
2023-04-04T00:14:52.116Z,67
2023-04-04T00:19:51.885Z,66.8
2023-04-04T00:24:52.205Z,67.5
2023-04-04T00:29:51.761Z,67.5
2023-04-04T00:34:51.879Z,67.7
2023-04-04T00:39:51.991Z,67.4
2023-04-04T00:44:51.759Z,68.5
2023-04-04T00:49:51.844Z,68.1
2023-04-04T00:54:52.009Z,69.5
2023-04-04T00:59:51.946Z,69.7
2023-04-04T01:04:51.969Z,70
2023-04-04T01:09:51.935Z,70.1
2023-04-04T01:14:52.316Z,70.7
2023-04-04T01:19:55.537Z,70.5
2023-04-04T01:24:51.995Z,70.4
2023-04-04T01:29:51.740Z,70.8
2023-04-04T01:34:51.853Z,71.6
2023-04-04T01:39:53.143Z,71.8
2023-04-04T01:44:51.733Z,70.8
2023-04-04T01:49:51.837Z,71
2023-04-04T01:54:52.005Z,70.2
2023-04-04T01:59:52.040Z,70.7
2023-04-04T02:04:52.014Z,71.2
2023-04-04T02:09:51.982Z,71.9
2023-04-04T02:14:52.042Z,71.8
2023-04-04T02:19:52.110Z,73
2023-04-04T02:24:52.104Z,72
2023-04-04T02:29:51.969Z,72.1
2023-04-04T02:34:51.918Z,72.5
2023-04-04T02:39:52.069Z,72.7
2023-04-04T02:44:51.961Z,72.3
2023-04-04T02:49:51.690Z,72.8
2023-04-04T02:54:51.941Z,73.3
2023-04-04T02:59:51.985Z,72.9
2023-04-04T03:04:51.670Z,73.6
2023-04-04T03:09:51.709Z,73
2023-04-04T03:14:51.739Z,73.5
2023-04-04T03:19:51.768Z,71.5
2023-04-04T03:24:51.760Z,73
2023-04-04T03:29:51.774Z,73.8
2023-04-04T03:34:52.152Z,74.4
2023-04-04T03:39:51.602Z,74.8
2023-04-04T03:44:51.761Z,73.6
2023-04-04T03:49:51.795Z,74.9
2023-04-04T03:54:52.210Z,75.5
2023-04-04T03:59:51.861Z,74.6
2023-04-04T04:04:51.864Z,75.9
2023-04-04T04:09:52.110Z,76.2
2023-04-04T04:14:51.651Z,75.8
2023-04-04T04:19:51.816Z,77.3
2023-04-04T04:24:51.705Z,78.2
2023-04-04T04:29:51.983Z,79.3
2023-04-04T04:34:51.816Z,80.3
2023-04-04T04:39:51.701Z,80.9
2023-04-04T04:44:51.780Z,81.9
2023-04-04T04:49:51.915Z,82.1
2023-04-04T04:54:51.637Z,82
2023-04-04T04:59:51.657Z,82.4
2023-04-04T05:04:51.661Z,81.4
2023-04-04T05:09:51.908Z,83
2023-04-04T05:14:52.089Z,83.1
2023-04-04T05:19:51.730Z,82.8
2023-04-04T05:24:51.581Z,82.6
2023-04-04T05:29:51.586Z,82.5
2023-04-04T05:34:51.867Z,83
2023-04-04T05:39:51.920Z,82.6
2023-04-04T05:44:52.261Z,83
2023-04-04T05:49:52.091Z,82.2
2023-04-04T05:54:51.755Z,83.7
2023-04-04T05:59:51.621Z,82.8
2023-04-04T06:04:51.845Z,83.6
2023-04-04T06:09:51.725Z,83.4
2023-04-04T06:14:51.624Z,82.4
2023-04-04T06:19:51.654Z,81.8
2023-04-04T06:24:51.667Z,81.4
2023-04-04T06:29:51.564Z,81.2
2023-04-04T06:34:51.822Z,79.7
2023-04-04T06:39:51.896Z,78.7
2023-04-04T06:44:51.642Z,77.8
2023-04-04T06:49:52.017Z,77.5
2023-04-04T06:54:51.856Z,77.9
2023-04-04T06:59:51.645Z,73.7
2023-04-04T07:04:52.026Z,72.3
2023-04-04T07:09:51.745Z,70.7
2023-04-04T07:14:51.601Z,71.5
2023-04-04T07:19:51.552Z,68.9
2023-04-04T07:24:51.621Z,69.8
2023-04-04T07:29:51.617Z,66.9
2023-04-04T07:34:51.877Z,66.4
2023-04-04T07:39:51.648Z,63.7
2023-04-04T07:44:51.672Z,62.2
2023-04-04T07:49:51.736Z,59.3
2023-04-04T07:54:51.774Z,58.9
2023-04-04T07:59:51.504Z,57.8
2023-04-04T08:04:51.431Z,52.4
2023-04-04T08:09:51.724Z,51.8
2023-04-04T08:14:51.508Z,51.5
2023-04-04T08:19:51.736Z,51.6
2023-04-04T08:24:51.775Z,49.8
2023-04-04T08:29:51.712Z,50.5
2023-04-04T08:34:51.520Z,46.7
2023-04-04T08:39:51.825Z,47.6
2023-04-04T08:44:51.561Z,46.6
2023-04-04T08:49:51.528Z,45.5
2023-04-04T08:54:51.930Z,45.3
2023-04-04T08:59:51.534Z,45.1
2023-04-04T09:05:03.203Z,47.5
2023-04-04T09:09:51.329Z,45.8
2023-04-04T09:14:51.703Z,46.7
2023-04-04T09:19:51.518Z,47.1
2023-04-04T09:24:51.342Z,45.3
2023-04-04T09:29:51.720Z,45.6
2023-04-04T09:34:51.563Z,44.8
2023-04-04T09:39:51.763Z,44.6
2023-04-04T09:44:51.442Z,45.9
2023-04-04T09:49:52.168Z,43.6
2023-04-04T09:54:56.921Z,43.1
2023-04-04T09:59:51.863Z,44
2023-04-04T10:05:03.348Z,44.4
2023-04-04T10:09:51.587Z,43.6
2023-04-04T10:14:51.253Z,42.8
2023-04-04T10:19:51.632Z,42.8
2023-04-04T10:24:51.678Z,42.9
2023-04-04T10:29:51.496Z,40.6
2023-04-04T10:34:54.706Z,40.5
2023-04-04T10:39:51.383Z,41.8
2023-04-04T10:44:51.357Z,41.5
2023-04-04T10:49:51.543Z,39.4
2023-04-04T10:54:51.472Z,40.6
2023-04-04T10:59:51.181Z,39.6
2023-04-04T11:04:51.560Z,40.3
2023-04-04T11:09:53.319Z,40.6
2023-04-04T11:14:51.535Z,39.5
2023-04-04T11:19:57.694Z,39.8
2023-04-04T11:24:51.304Z,38.8
2023-04-04T11:29:51.272Z,39.8
2023-04-04T11:34:51.622Z,39.5
2023-04-04T11:39:52.132Z,38
2023-04-04T11:44:51.509Z,38.3
2023-04-04T11:49:51.599Z,38.7
2023-04-04T11:54:51.740Z,38.1
2023-04-04T11:59:51.346Z,37.8
2023-04-04T12:04:51.598Z,37.4
2023-04-04T12:09:51.237Z,37.6
2023-04-04T12:14:53.611Z,36.8
2023-04-04T12:19:51.270Z,37.3
2023-04-04T12:24:51.568Z,37.1
2023-04-04T12:29:51.607Z,36.5
2023-04-04T12:34:51.458Z,35.6
2023-04-04T12:39:51.320Z,35.7
2023-04-04T12:44:51.507Z,34.5
2023-04-04T12:49:51.267Z,34.9
2023-04-04T12:55:06.741Z,33
2023-04-04T12:59:51.177Z,31.4
2023-04-04T13:04:52.361Z,32.3
2023-04-04T13:09:51.257Z,31.3
2023-04-04T13:14:51.314Z,30.1
2023-04-04T13:19:51.355Z,31
2023-04-04T13:24:51.381Z,31.5
2023-04-04T13:29:51.293Z,31.1
2023-04-04T13:34:51.300Z,31.8
2023-04-04T13:39:51.082Z,32
2023-04-04T13:44:51.309Z,32.8
2023-04-04T13:49:51.573Z,31.9
2023-04-04T13:54:51.384Z,33.3
2023-04-04T13:59:51.213Z,34.2
2023-04-04T14:04:51.346Z,33.8
2023-04-04T14:09:51.094Z,34.6
2023-04-04T14:14:51.005Z,35.4
2023-04-04T14:19:51.120Z,37.9
2023-04-04T14:24:51.268Z,37.6
2023-04-04T14:29:51.056Z,37
2023-04-04T14:34:51.167Z,39.5
2023-04-04T14:39:51.325Z,41.3
2023-04-04T14:44:51.372Z,40.3
2023-04-04T14:49:51.082Z,41
2023-04-04T14:54:51.401Z,41.5
2023-04-04T14:59:51.068Z,41.9
2023-04-04T15:04:51.059Z,42.8
2023-04-04T15:09:51.213Z,41.8
2023-04-04T15:14:51.302Z,41.9
2023-04-04T15:19:51.298Z,41.9
2023-04-04T15:24:51.253Z,43.4
2023-04-04T15:29:51.341Z,44.2
2023-04-04T15:34:51.315Z,44.5
2023-04-04T15:39:53.849Z,45.3
2023-04-04T15:44:51.004Z,45.9
2023-04-04T15:49:51.326Z,45.7
2023-04-04T15:54:51.118Z,46.5
2023-04-04T15:59:51.134Z,47.2
2023-04-04T16:04:51.535Z,47.3
2023-04-04T16:09:51.137Z,47.5
2023-04-04T16:14:51.170Z,48.1
2023-04-04T16:19:51.213Z,47.5
2023-04-04T16:24:51.204Z,48.1
2023-04-04T16:29:51.552Z,48.2
2023-04-04T16:34:51.104Z,49.1
2023-04-04T16:39:51.117Z,49.5
2023-04-04T16:44:51.256Z,49.4
2023-04-04T16:49:51.052Z,49.9
2023-04-04T16:54:51.100Z,50.1
2023-04-04T16:59:51.034Z,49.6
2023-04-04T17:04:51.001Z,51
2023-04-04T17:09:50.895Z,51.7
2023-04-04T17:14:51.288Z,50.2
2023-04-04T17:19:51.527Z,48.2
2023-04-04T17:24:51.035Z,47.3
2023-04-04T17:29:51.144Z,47.9
2023-04-04T17:34:51.165Z,47.2
2023-04-04T17:39:51.269Z,48.5
2023-04-04T17:44:51.033Z,49.1
2023-04-04T17:49:51.697Z,50
2023-04-04T17:54:50.920Z,50.6
2023-04-04T17:59:51.187Z,51
2023-04-04T18:04:51.108Z,51.4
2023-04-04T18:09:51.094Z,52.3
2023-04-04T18:14:51.128Z,52.5
2023-04-04T18:19:51.256Z,53.6
2023-04-04T18:24:51.128Z,53.7
2023-04-04T18:29:50.991Z,54.3
2023-04-04T18:34:51.000Z,54.6
2023-04-04T18:39:52.577Z,54.3
2023-04-04T18:44:50.954Z,55.7
2023-04-04T18:49:51.141Z,56.5
2023-04-04T18:54:51.007Z,56.5
2023-04-04T18:59:51.248Z,56.6
2023-04-04T19:04:50.980Z,57.6
2023-04-04T19:09:51.871Z,58.9
2023-04-04T19:14:50.981Z,58.8
2023-04-04T19:19:51.378Z,59.7
2023-04-04T19:24:51.339Z,59.7
2023-04-04T19:29:51.033Z,60.3
2023-04-04T19:34:50.991Z,61.2
2023-04-04T19:39:50.778Z,61.7
2023-04-04T19:44:51.345Z,62.2
2023-04-04T19:49:51.381Z,62.3
2023-04-04T19:54:51.400Z,64.2
2023-04-04T19:59:56.236Z,64.6
2023-04-04T20:04:51.325Z,64.7
2023-04-04T20:09:51.188Z,65
2023-04-04T20:14:50.796Z,65.7
2023-04-04T20:19:51.580Z,66.1
2023-04-04T20:24:51.302Z,66.4
2023-04-04T20:29:50.973Z,67.3
2023-04-04T20:34:51.168Z,67.5
2023-04-04T20:39:51.021Z,68
2023-04-04T20:44:50.951Z,69
2023-04-04T20:49:51.068Z,69.3
2023-04-04T20:54:50.887Z,69.9
2023-04-04T20:59:50.972Z,70.6
2023-04-04T21:04:51.031Z,70
2023-04-04T21:09:51.145Z,70.9
2023-04-04T21:14:51.067Z,71.1
2023-04-04T21:19:51.139Z,70.8
2023-04-04T21:24:50.877Z,71.5
2023-04-04T21:29:50.997Z,71.3
2023-04-04T21:34:51.004Z,71.7
2023-04-04T21:39:50.885Z,72.3
2023-04-04T21:44:51.009Z,72.1
2023-04-04T21:49:50.961Z,72.5
2023-04-04T21:54:50.863Z,73.7
2023-04-04T21:59:50.946Z,73.2
2023-04-04T22:04:51.284Z,72.9
2023-04-04T22:09:50.602Z,74.3
2023-04-04T22:14:50.743Z,73.6
2023-04-04T22:19:50.892Z,73.8
2023-04-04T22:24:50.742Z,74.3
2023-04-04T22:29:50.874Z,74.5
2023-04-04T22:34:50.699Z,75.4
2023-04-04T22:39:50.640Z,75.6
2023-04-04T22:44:50.671Z,75.5
2023-04-04T22:49:50.664Z,75.2
2023-04-04T22:54:51.022Z,75.4
2023-04-04T22:59:50.886Z,75.4
2023-04-04T23:04:50.833Z,76
2023-04-04T23:09:50.798Z,77
2023-04-04T23:14:50.840Z,76.4
2023-04-04T23:19:51.192Z,77.6
2023-04-04T23:24:50.803Z,77.1
2023-04-04T23:29:50.826Z,77.4
2023-04-04T23:34:50.786Z,76.6
2023-04-04T23:39:50.828Z,77.2
2023-04-04T23:44:50.583Z,77.1
2023-04-04T23:49:50.630Z,76.6
2023-04-04T23:54:50.878Z,77.9
2023-04-04T23:59:50.544Z,77.4
